Time;durP1;ratioP1;P1;durP2;ratioP2;P2;SDS_P1;SDS_P2;PMS_P1;PMS_P2;Temp;Humidity;BMP_temperature;BMP_pressure;BME280_temperature;BME280_humidity;BME280_pressure;Samples;Min_cycle;Max_cycle;Signal;HPM_P1;HPM_P2
2022/06/29 00:01:23;;;;;;;6.25;4.55;;;17.90;99.90;;;;;;5020224;28;20247;-29
2022/06/29 00:03:51;;;;;;;4.63;4.30;;;17.80;99.90;;;;;;5043828;28;20178;-31
2022/06/29 00:06:18;;;;;;;5.28;4.78;;;17.70;99.90;;;;;;5036047;28;20190;-29
2022/06/29 00:08:46;;;;;;;5.63;5.03;;;17.70;99.90;;;;;;5051543;28;20197;-29
2022/06/29 00:11:12;;;;;;;5.28;4.85;;;17.70;99.90;;;;;;5033415;28;20236;-29
2022/06/29 00:13:39;;;;;;;5.80;5.20;;;17.60;99.90;;;;;;5040737;28;20294;-32
2022/06/29 00:16:06;;;;;;;5.95;5.10;;;17.70;99.90;;;;;;5051096;28;20198;-32
2022/06/29 00:18:33;;;;;;;5.50;4.97;;;17.70;99.90;;;;;;5032923;28;20459;-30
2022/06/29 00:21:00;;;;;;;6.13;4.78;;;17.70;99.90;;;;;;5050286;28;20216;-31
2022/06/29 00:23:26;;;;;;;5.65;4.95;;;17.70;99.90;;;;;;5032541;28;20269;-31
2022/06/29 00:25:52;;;;;;;5.35;4.95;;;17.70;99.90;;;;;;5050892;28;20174;-30
2022/06/29 00:28:19;;;;;;;5.00;4.60;;;17.70;99.90;;;;;;5050600;28;20174;-30
2022/06/29 00:30:45;;;;;;;5.13;4.63;;;17.70;99.90;;;;;;5034093;28;20209;-30
2022/06/29 00:33:13;;;;;;;5.93;5.15;;;17.70;99.90;;;;;;5056436;28;20185;-31
2022/06/29 00:35:39;;;;;;;7.07;5.03;;;17.60;99.90;;;;;;5032731;28;20216;-30
2022/06/29 00:38:05;;;;;;;7.15;5.10;;;17.50;99.90;;;;;;5050891;28;20255;-28
2022/06/29 00:40:31;;;;;;;7.47;5.15;;;17.50;99.90;;;;;;5032800;28;20206;-30
2022/06/29 00:42:57;;;;;;;5.33;4.83;;;17.50;99.90;;;;;;5043497;28;20196;-29
2022/06/29 00:45:23;;;;;;;5.63;5.05;;;17.40;99.90;;;;;;5050344;28;20177;-31
2022/06/29 00:47:49;;;;;;;6.78;5.50;;;17.40;99.90;;;;;;5052355;28;20320;-30
2022/06/29 00:50:16;;;;;;;5.53;5.07;;;17.40;99.90;;;;;;5035319;28;20193;-29
2022/06/29 00:52:45;;;;;;;5.93;5.40;;;17.40;99.90;;;;;;5034828;28;20178;-29
2022/06/29 00:55:19;;;;;;;5.70;4.90;;;17.40;99.90;;;;;;5052409;28;20170;-28
2022/06/29 00:57:47;;;;;;;5.00;4.60;;;17.30;99.90;;;;;;5053504;28;20240;-30
2022/06/29 01:00:13;;;;;;;6.03;5.53;;;17.30;99.90;;;;;;5069877;28;20661;-33
2022/06/29 01:02:39;;;;;;;6.65;5.20;;;17.30;99.90;;;;;;5052491;28;20264;-30
2022/06/29 01:05:06;;;;;;;5.97;4.70;;;17.30;99.90;;;;;;5035898;28;20312;-30
2022/06/29 01:07:33;;;;;;;6.00;5.03;;;17.30;99.90;;;;;;5047723;28;20250;-31
2022/06/29 01:10:00;;;;;;;6.90;5.43;;;17.20;99.90;;;;;;5052938;28;20200;-30
2022/06/29 01:12:26;;;;;;;7.90;5.30;;;17.20;99.90;;;;;;5052721;28;20193;-30
2022/06/29 01:14:53;;;;;;;8.20;5.90;;;17.20;99.90;;;;;;5052097;28;20170;-30
2022/06/29 01:17:22;;;;;;;6.00;5.50;;;17.10;99.90;;;;;;5051870;28;20205;-32
2022/06/29 01:19:48;;;;;;;8.33;6.00;;;17.10;99.90;;;;;;5052364;28;20201;-31
2022/06/29 01:22:18;;;;;;;6.37;5.77;;;17.10;99.90;;;;;;5052544;28;20651;-31
2022/06/29 01:24:46;;;;;;;6.70;5.45;;;17.10;99.90;;;;;;5052221;28;20181;-30
2022/06/29 01:27:16;;;;;;;5.80;5.20;;;17.10;99.90;;;;;;5045005;28;20223;-31
2022/06/29 01:29:43;;;;;;;6.40;5.80;;;17.10;99.90;;;;;;5037655;28;20182;-31
2022/06/29 01:32:09;;;;;;;5.57;5.17;;;17.10;99.90;;;;;;5047382;28;20194;-31
2022/06/29 01:34:35;;;;;;;6.70;5.75;;;17.10;99.90;;;;;;5031333;28;20182;-32
2022/06/29 01:37:03;;;;;;;5.78;5.28;;;17.10;99.90;;;;;;5052604;28;20269;-31
2022/06/29 01:39:29;;;;;;;5.77;5.30;;;17.10;99.90;;;;;;5048190;28;20568;-31
2022/06/29 01:41:55;;;;;;;5.90;5.30;;;17.10;99.90;;;;;;5048087;28;20191;-33
2022/06/29 01:44:22;;;;;;;8.23;5.70;;;17.10;99.90;;;;;;5048208;28;20181;-30
2022/06/29 01:46:48;;;;;;;7.80;6.33;;;17.10;99.90;;;;;;5051371;28;20273;-31
2022/06/29 01:49:14;;;;;;;6.30;5.70;;;17.20;99.90;;;;;;5034515;28;20308;-30
2022/06/29 01:51:40;;;;;;;6.50;5.25;;;17.20;99.90;;;;;;5038031;28;20681;-30
2022/06/29 01:54:06;;;;;;;8.67;5.77;;;17.20;99.90;;;;;;5033316;28;20186;-30
2022/06/29 01:56:32;;;;;;;6.65;5.80;;;17.20;99.90;;;;;;5043666;28;20335;-31
2022/06/29 01:58:58;;;;;;;6.97;6.27;;;17.20;99.90;;;;;;5031644;28;20189;-30
2022/06/29 02:01:24;;;;;;;5.78;5.20;;;17.20;99.90;;;;;;5039748;28;20224;-31
2022/06/29 02:03:51;;;;;;;6.00;5.37;;;17.20;99.90;;;;;;5035342;28;20182;-30
2022/06/29 02:06:18;;;;;;;9.70;5.60;;;17.30;99.90;;;;;;5033501;28;20238;-30
2022/06/29 02:08:45;;;;;;;5.75;5.25;;;17.20;99.90;;;;;;5051153;28;20190;-30
2022/06/29 02:11:11;;;;;;;7.72;5.45;;;17.10;99.90;;;;;;5050746;28;20247;-29
2022/06/29 02:13:39;;;;;;;5.47;5.00;;;17.00;99.90;;;;;;5051235;28;20190;-30
2022/06/29 02:16:05;;;;;;;6.13;5.53;;;16.90;99.90;;;;;;5051021;28;20205;-30
2022/06/29 02:18:31;;;;;;;6.47;5.80;;;17.00;99.90;;;;;;5049922;28;20249;-31
2022/06/29 02:20:57;;;;;;;5.80;5.30;;;16.90;99.90;;;;;;5030892;28;20282;-31
2022/06/29 02:23:23;;;;;;;6.10;5.43;;;16.90;99.90;;;;;;5031178;28;20344;-31
2022/06/29 02:25:49;;;;;;;5.17;4.63;;;17.00;99.90;;;;;;5030904;28;20182;-31
2022/06/29 02:28:15;;;;;;;5.57;5.17;;;16.90;99.90;;;;;;5014845;28;20174;-32
2022/06/29 02:36:15;;;;;;;6.43;5.40;;;16.80;99.90;;;;;;5041865;28;20217;-32
2022/06/29 02:38:40;;;;;;;6.03;5.00;;;16.80;99.90;;;;;;5034637;28;20231;-30
2022/06/29 02:41:06;;;;;;;5.87;5.37;;;16.70;99.90;;;;;;5034352;28;20201;-30
2022/06/29 02:43:33;;;;;;;6.20;5.33;;;16.70;99.90;;;;;;5050711;28;20182;-33
2022/06/29 02:45:59;;;;;;;5.83;5.07;;;16.70;99.90;;;;;;5050608;28;20260;-31
2022/06/29 02:48:24;;;;;;;8.80;5.57;;;16.70;99.90;;;;;;5050632;28;20268;-31
2022/06/29 02:50:50;;;;;;;6.03;5.53;;;16.60;99.90;;;;;;5034101;28;20205;-30
2022/06/29 02:53:16;;;;;;;6.33;5.73;;;16.60;99.90;;;;;;5050313;28;20189;-30
2022/06/29 02:55:42;;;;;;;6.40;5.37;;;16.60;99.90;;;;;;5033744;28;20277;-31
2022/06/29 02:58:08;;;;;;;6.27;5.67;;;16.60;99.90;;;;;;5033628;28;20189;-31
2022/06/29 03:00:34;;;;;;;5.97;5.47;;;16.50;99.90;;;;;;5051560;28;20202;-31
2022/06/29 03:02:59;;;;;;;6.53;5.50;;;16.50;99.90;;;;;;5050068;28;20178;-31
2022/06/29 03:05:25;;;;;;;7.90;5.80;;;16.50;99.90;;;;;;5057945;28;20227;-31
2022/06/29 03:07:51;;;;;;;5.60;5.10;;;16.50;99.90;;;;;;5071774;28;20223;-30
2022/06/29 03:10:17;;;;;;;7.13;5.93;;;16.50;99.90;;;;;;5071690;28;20209;-31
2022/06/29 03:12:42;;;;;;;5.80;5.20;;;16.50;99.90;;;;;;5051622;28;20613;-32
2022/06/29 03:15:10;;;;;;;6.20;5.60;;;16.50;99.90;;;;;;5048766;28;20178;-31
2022/06/29 03:17:37;;;;;;;6.03;5.50;;;16.50;99.90;;;;;;5049095;28;20198;-29
2022/06/29 03:20:05;;;;;;;6.60;5.83;;;16.40;99.90;;;;;;5048573;28;20289;-31
2022/06/29 03:22:33;;;;;;;5.50;5.00;;;16.40;99.90;;;;;;5049941;28;20185;-32
2022/06/29 03:24:59;;;;;;;5.53;4.70;;;16.50;99.90;;;;;;5050025;28;20195;-29
2022/06/29 03:27:25;;;;;;;6.50;5.90;;;16.40;99.90;;;;;;5050138;28;20212;-30
2022/06/29 03:29:51;;;;;;;6.53;5.80;;;16.40;99.90;;;;;;5049943;28;20206;-33
2022/06/29 03:32:17;;;;;;;5.87;5.30;;;16.30;99.90;;;;;;5050273;28;20178;-30
2022/06/29 03:34:43;;;;;;;8.20;5.23;;;16.30;99.90;;;;;;5049349;28;20236;-30
2022/06/29 03:37:09;;;;;;;9.13;5.27;;;16.30;99.90;;;;;;5049636;28;20202;-29
2022/06/29 03:39:35;;;;;;;5.73;5.23;;;16.30;99.90;;;;;;5032489;28;20174;-31
2022/06/29 03:42:02;;;;;;;5.83;5.20;;;16.30;99.90;;;;;;5050047;28;20188;-31
2022/06/29 03:44:27;;;;;;;6.30;5.70;;;16.30;99.90;;;;;;5050838;28;20189;-30
2022/06/29 03:46:53;;;;;;;7.57;6.17;;;16.30;99.90;;;;;;5033065;28;20177;-30
2022/06/29 03:49:19;;;;;;;6.20;5.60;;;16.20;99.90;;;;;;5033023;28;20187;-31
2022/06/29 03:51:45;;;;;;;7.37;6.37;;;16.20;99.90;;;;;;5050749;28;20206;-31
2022/06/29 03:54:11;;;;;;;8.00;6.13;;;16.20;99.90;;;;;;5049632;28;20186;-29
2022/06/29 03:56:37;;;;;;;10.90;6.60;;;16.20;99.90;;;;;;5051078;28;20192;-30
2022/06/29 03:59:03;;;;;;;6.80;5.70;;;16.20;99.90;;;;;;5033313;28;20185;-30
2022/06/29 04:01:31;;;;;;;6.50;5.67;;;16.20;99.90;;;;;;5048927;28;20284;-30
2022/06/29 04:03:56;;;;;;;6.43;5.83;;;16.30;99.90;;;;;;5032882;28;20166;-30
2022/06/29 04:06:22;;;;;;;6.00;5.10;;;16.20;99.90;;;;;;5032951;28;20186;-32
2022/06/29 04:08:48;;;;;;;9.63;5.60;;;16.20;99.90;;;;;;5049411;28;20189;-31
2022/06/29 04:13:58;;;;;;;7.10;5.53;;;16.20;99.90;;;;;;5050610;28;20208;-31
2022/06/29 04:16:24;;;;;;;6.77;5.70;;;16.30;99.90;;;;;;5050672;28;20214;-31
2022/06/29 04:18:50;;;;;;;8.80;5.70;;;16.30;99.90;;;;;;5049048;28;20206;-30
2022/06/29 04:21:15;;;;;;;7.57;5.90;;;16.30;99.90;;;;;;5032721;28;20209;-30
2022/06/29 04:23:41;;;;;;;6.70;6.10;;;16.30;99.90;;;;;;5032966;28;20166;-31
2022/06/29 04:26:07;;;;;;;10.57;6.90;;;16.30;99.90;;;;;;5049385;28;20184;-31
2022/06/29 04:28:33;;;;;;;7.53;6.20;;;16.30;99.90;;;;;;5032517;28;20182;-31
2022/06/29 04:31:00;;;;;;;6.90;6.20;;;16.40;99.90;;;;;;5049668;28;20205;-31
2022/06/29 04:33:26;;;;;;;8.17;6.30;;;16.40;99.90;;;;;;5032554;28;20263;-31
2022/06/29 04:35:52;;;;;;;6.80;6.07;;;16.40;99.90;;;;;;5031718;28;20174;-31
2022/06/29 04:38:19;;;;;;;6.07;5.53;;;16.50;99.90;;;;;;5048768;28;20170;-31
2022/06/29 04:40:45;;;;;;;7.83;5.97;;;16.50;99.90;;;;;;5049127;28;20202;-31
2022/06/29 04:43:14;;;;;;;7.17;6.47;;;16.50;99.90;;;;;;5030178;28;20174;-31
2022/06/29 04:48:25;;;;;;;7.40;6.70;;;16.50;99.90;;;;;;5046545;28;20170;-31
2022/06/29 04:50:51;;;;;;;7.47;6.13;;;16.50;99.90;;;;;;5050821;28;20197;-31
2022/06/29 04:53:17;;;;;;;6.90;6.00;;;16.50;99.90;;;;;;5032837;28;20185;-30
2022/06/29 04:55:43;;;;;;;8.80;6.63;;;16.60;99.90;;;;;;5044505;28;20199;-31
2022/06/29 04:58:09;;;;;;;7.17;6.57;;;16.60;99.90;;;;;;5027312;28;20218;-31
2022/06/29 05:00:35;;;;;;;6.53;6.00;;;16.60;99.90;;;;;;5049567;28;20194;-31
2022/06/29 05:03:01;;;;;;;7.63;6.93;;;16.60;99.90;;;;;;5028070;28;20192;-31
2022/06/29 05:05:26;;;;;;;7.20;6.50;;;16.70;99.90;;;;;;5033708;28;20204;-31
2022/06/29 05:07:52;;;;;;;11.10;6.87;;;16.70;99.90;;;;;;5049444;28;20190;-31
2022/06/29 05:10:18;;;;;;;7.53;6.77;;;16.80;99.90;;;;;;5048582;28;20248;-31
2022/06/29 05:12:44;;;;;;;8.43;6.57;;;16.90;99.90;;;;;;5050326;28;20288;-31
2022/06/29 05:15:10;;;;;;;7.30;6.60;;;17.00;99.90;;;;;;5034038;28;20178;-31
2022/06/29 05:17:37;;;;;;;6.93;6.30;;;17.10;99.90;;;;;;5051057;28;20198;-31
2022/06/29 05:20:08;;;;;;;7.57;6.70;;;17.10;99.90;;;;;;5051902;28;20198;-31
2022/06/29 05:22:34;;;;;;;7.38;6.32;;;17.20;99.90;;;;;;5051903;28;20188;-31
2022/06/29 05:25:00;;;;;;;7.40;6.80;;;17.30;99.90;;;;;;5066031;28;20178;-31
2022/06/29 05:27:26;;;;;;;10.57;7.13;;;17.40;99.90;;;;;;5034999;28;20196;-31
2022/06/29 05:29:52;;;;;;;7.37;6.77;;;17.50;99.90;;;;;;5050204;28;20204;-31
2022/06/29 05:32:18;;;;;;;7.77;6.77;;;17.60;99.90;;;;;;5050050;28;20173;-31
2022/06/29 05:34:43;;;;;;;9.90;6.45;;;17.70;99.90;;;;;;5036916;28;20174;-31
2022/06/29 05:37:09;;;;;;;13.45;6.90;;;17.80;99.90;;;;;;5049353;28;20285;-31
2022/06/29 05:39:35;;;;;;;10.38;7.40;;;17.90;99.90;;;;;;5043461;28;20179;-32
2022/06/29 05:42:01;;;;;;;8.05;7.10;;;18.00;99.90;;;;;;5051431;28;20190;-31
2022/06/29 05:44:27;;;;;;;7.30;6.50;;;18.00;99.90;;;;;;5051093;28;20184;-31
2022/06/29 05:46:52;;;;;;;9.30;6.47;;;18.20;99.90;;;;;;5052882;28;20178;-32
2022/06/29 05:49:18;;;;;;;7.28;6.38;;;18.20;99.90;;;;;;5034500;28;20220;-31
2022/06/29 05:51:44;;;;;;;7.72;6.78;;;18.20;99.90;;;;;;5049215;28;20216;-31
2022/06/29 05:54:10;;;;;;;7.25;6.55;;;18.20;99.90;;;;;;5050871;28;20185;-31
2022/06/29 05:56:35;;;;;;;11.43;6.72;;;18.30;99.90;;;;;;5032919;28;20259;-31
2022/06/29 05:59:02;;;;;;;7.20;5.85;;;18.30;99.90;;;;;;5051450;28;20217;-31
2022/06/29 06:01:28;;;;;;;8.93;6.22;;;18.40;99.90;;;;;;5049966;28;20252;-31
2022/06/29 06:03:54;;;;;;;6.90;6.20;;;18.40;99.90;;;;;;5034170;28;20175;-31
2022/06/29 06:06:19;;;;;;;7.13;5.78;;;18.40;99.90;;;;;;5061907;28;20197;-31
2022/06/29 06:08:46;;;;;;;6.80;6.15;;;18.40;99.90;;;;;;5047332;28;20186;-31
2022/06/29 06:11:12;;;;;;;6.28;5.78;;;18.50;99.90;;;;;;5027124;28;20220;-31
2022/06/29 06:13:38;;;;;;;6.38;5.88;;;18.50;99.90;;;;;;5050656;28;20174;-31
2022/06/29 06:16:04;;;;;;;7.88;6.30;;;18.50;99.90;;;;;;5051673;28;20321;-31
2022/06/29 06:18:30;;;;;;;7.68;6.20;;;18.60;99.90;;;;;;5050396;28;20178;-31
2022/06/29 06:20:56;;;;;;;8.05;5.95;;;18.60;99.90;;;;;;5049750;28;20216;-32
2022/06/29 06:23:21;;;;;;;7.28;6.55;;;18.60;99.90;;;;;;5050462;28;20174;-31
2022/06/29 06:25:47;;;;;;;6.68;5.97;;;18.70;99.90;;;;;;5047462;28;20169;-32
2022/06/29 06:28:13;;;;;;;6.47;5.80;;;18.70;99.90;;;;;;5050416;28;20178;-32
2022/06/29 06:30:39;;;;;;;8.07;5.82;;;18.80;99.90;;;;;;5043464;28;20292;-31
2022/06/29 06:33:05;;;;;;;8.20;6.40;;;18.80;99.90;;;;;;5030937;28;20280;-31
2022/06/29 06:35:32;;;;;;;6.55;6.00;;;19.00;99.90;;;;;;5028046;28;20258;-32
2022/06/29 06:37:57;;;;;;;6.75;6.13;;;19.00;99.90;;;;;;5047989;28;20205;-31
2022/06/29 06:43:08;;;;;;;6.88;6.18;;;19.40;99.90;;;;;;5048134;28;20181;-32
2022/06/29 06:45:33;;;;;;;7.63;6.80;;;19.70;99.90;;;;;;5048398;28;20181;-32
2022/06/29 06:47:59;;;;;;;9.23;6.70;;;19.90;99.90;;;;;;5042960;28;20170;-31
2022/06/29 06:50:25;;;;;;;7.53;5.95;;;20.10;99.90;;;;;;5045530;28;20217;-32
2022/06/29 06:52:51;;;;;;;7.03;6.38;;;20.30;99.90;;;;;;5047544;28;20193;-32
2022/06/29 06:55:17;;;;;;;6.78;5.95;;;20.50;99.90;;;;;;5049024;28;20181;-32
2022/06/29 06:57:43;;;;;;;6.75;6.13;;;20.60;99.90;;;;;;5030722;28;20205;-32
2022/06/29 07:00:10;;;;;;;6.20;5.60;;;20.70;99.90;;;;;;5048207;28;20194;-32
2022/06/29 07:02:36;;;;;;;8.38;6.13;;;20.90;99.90;;;;;;5048124;28;20275;-32
2022/06/29 07:05:03;;;;;;;6.60;5.70;;;21.10;99.90;;;;;;5052616;28;20185;-32
2022/06/29 07:07:29;;;;;;;6.10;5.53;;;21.20;99.90;;;;;;5069754;28;20174;-32
2022/06/29 07:09:54;;;;;;;6.93;5.82;;;21.40;99.90;;;;;;5068206;28;20285;-32
2022/06/29 07:12:20;;;;;;;6.90;6.22;;;21.60;99.90;;;;;;5034714;28;20213;-32
2022/06/29 07:14:46;;;;;;;6.57;5.68;;;21.80;99.90;;;;;;5038820;28;20177;-32
2022/06/29 07:17:12;;;;;;;8.20;5.85;;;22.00;99.90;;;;;;5049501;28;20282;-32
2022/06/29 07:19:38;;;;;;;6.43;5.82;;;22.10;99.90;;;;;;5037803;28;20186;-32
2022/06/29 07:22:04;;;;;;;6.57;5.97;;;22.30;99.90;;;;;;5028510;28;20182;-32
2022/06/29 07:24:30;;;;;;;7.40;6.28;;;22.40;99.90;;;;;;5048743;28;20190;-32
2022/06/29 07:26:56;;;;;;;6.07;5.40;;;22.50;99.90;;;;;;5033311;28;20185;-33
2022/06/29 07:29:23;;;;;;;6.20;5.68;;;22.60;99.90;;;;;;5033082;28;20272;-33
2022/06/29 07:31:48;;;;;;;6.47;5.75;;;22.70;99.90;;;;;;5049477;28;20204;-32
2022/06/29 07:34:14;;;;;;;5.93;5.43;;;22.80;99.90;;;;;;5032546;28;20189;-32
2022/06/29 07:36:40;;;;;;;6.10;5.60;;;22.90;99.90;;;;;;5067784;28;20291;-32
2022/06/29 07:39:06;;;;;;;6.43;5.70;;;23.00;99.90;;;;;;5069726;28;20205;-33
2022/06/29 07:41:32;;;;;;;6.43;5.82;;;22.90;99.90;;;;;;5052836;28;20197;-32
2022/06/29 07:43:58;;;;;;;6.28;5.40;;;23.00;99.90;;;;;;5052547;28;20181;-32
2022/06/29 07:46:24;;;;;;;6.03;5.45;;;22.90;99.90;;;;;;5052628;28;20181;-32
2022/06/29 07:48:50;;;;;;;6.13;5.65;;;22.90;99.90;;;;;;5069277;28;20266;-33
2022/06/29 07:51:16;;;;;;;6.80;6.07;;;23.10;99.90;;;;;;5070995;28;20193;-32
2022/06/29 07:53:42;;;;;;;6.15;5.65;;;23.20;99.90;;;;;;5069440;28;20177;-33
2022/06/29 07:56:08;;;;;;;5.35;4.95;;;23.20;99.90;;;;;;5052476;28;20203;-33
2022/06/29 07:58:34;;;;;;;8.80;5.15;;;23.30;99.90;;;;;;5069282;28;20185;-33
2022/06/29 08:00:59;;;;;;;5.03;4.53;;;23.50;99.90;;;;;;5070340;28;20197;-31
2022/06/29 08:03:25;;;;;;;7.15;4.63;;;23.70;99.90;;;;;;5070563;28;20178;-32
2022/06/29 08:05:51;;;;;;;5.85;5.32;;;23.80;99.90;;;;;;5052255;28;20189;-32
2022/06/29 08:08:17;;;;;;;6.20;5.70;;;23.90;99.90;;;;;;5052591;28;20185;-32
2022/06/29 08:10:43;;;;;;;7.10;4.82;;;23.80;99.90;;;;;;5052535;28;20207;-32
2022/06/29 08:13:09;;;;;;;5.43;5.00;;;23.80;99.90;;;;;;5069124;28;20259;-33
2022/06/29 08:15:35;;;;;;;5.18;4.70;;;24.00;99.90;;;;;;5068770;28;20185;-32
2022/06/29 08:18:01;;;;;;;5.15;4.75;;;24.20;99.90;;;;;;5052277;28;20208;-33
2022/06/29 08:20:28;;;;;;;6.32;5.72;;;24.40;99.90;;;;;;5052456;28;20212;-32
2022/06/29 08:22:55;;;;;;;5.68;5.15;;;24.60;99.90;;;;;;5052533;28;20173;-33
2022/06/29 08:25:20;;;;;;;5.65;4.80;;;24.80;99.90;;;;;;5070584;28;20165;-33
2022/06/29 08:27:52;;;;;;;5.43;4.93;;;24.90;99.90;;;;;;5056607;28;20173;-32
2022/06/29 08:30:18;;;;;;;4.90;4.40;;;25.00;99.90;;;;;;5072774;28;20201;-33
2022/06/29 08:32:44;;;;;;;5.00;4.60;;;25.00;99.90;;;;;;5073196;28;20189;-33
2022/06/29 08:35:12;;;;;;;5.60;4.38;;;25.20;99.90;;;;;;5072637;28;20208;-33
2022/06/29 08:37:38;;;;;;;4.57;4.20;;;25.40;99.90;;;;;;5056065;28;20311;-33
2022/06/29 08:40:09;;;;;;;4.85;4.35;;;25.40;99.90;;;;;;5072633;28;20259;-33
2022/06/29 08:42:36;;;;;;;4.55;4.15;;;25.60;99.90;;;;;;5072617;28;20268;-33
2022/06/29 08:45:04;;;;;;;4.43;4.13;;;25.50;99.90;;;;;;5072137;28;20180;-33
2022/06/29 08:47:30;;;;;;;3.92;3.58;;;25.20;99.90;;;;;;5072829;28;20269;-33
2022/06/29 08:49:56;;;;;;;3.80;3.50;;;25.20;99.90;;;;;;5072526;28;20288;-32
2022/06/29 08:52:25;;;;;;;4.30;3.90;;;25.00;99.90;;;;;;5072579;28;20185;-33
2022/06/29 08:54:53;;;;;;;4.22;3.90;;;24.90;99.90;;;;;;5071725;28;20189;-32
2022/06/29 08:57:20;;;;;;;4.38;3.97;;;25.00;99.90;;;;;;5055520;28;20204;-33
2022/06/29 08:59:47;;;;;;;4.20;3.88;;;25.10;99.90;;;;;;5072450;28;20185;-33
2022/06/29 09:02:14;;;;;;;4.18;3.78;;;25.50;99.90;;;;;;5072410;28;20177;-33
2022/06/29 09:04:40;;;;;;;5.35;3.53;;;25.60;99.90;;;;;;5072045;28;20665;-33
2022/06/29 09:07:05;;;;;;;4.40;3.70;;;25.50;99.90;;;;;;5055637;28;20231;-33
2022/06/29 09:09:51;;;;;;;4.07;3.70;;;25.40;99.90;;;;;;5055410;28;20185;-33
2022/06/29 09:12:20;;;;;;;4.40;4.10;;;25.20;99.90;;;;;;5072054;28;20184;-33
2022/06/29 09:14:46;;;;;;;4.72;4.13;;;25.00;99.90;;;;;;5055490;28;20185;-32
2022/06/29 09:17:11;;;;;;;6.97;4.50;;;25.10;99.90;;;;;;5072335;28;20200;-32
2022/06/29 09:19:37;;;;;;;5.00;4.50;;;25.10;99.90;;;;;;5055193;28;20296;-33
2022/06/29 09:22:03;;;;;;;4.18;3.70;;;25.20;99.90;;;;;;5055342;28;20169;-33
2022/06/29 09:24:32;;;;;;;4.18;3.88;;;25.30;99.90;;;;;;5071580;28;20170;-33
2022/06/29 09:27:02;;;;;;;4.20;3.80;;;25.30;99.90;;;;;;5072318;28;20181;-33
2022/06/29 09:29:36;;;;;;;4.03;3.72;;;25.30;99.90;;;;;;5071827;28;20268;-33
2022/06/29 09:32:05;;;;;;;4.65;4.25;;;25.40;99.90;;;;;;5071872;28;20181;-33
2022/06/29 09:34:36;;;;;;;4.75;4.35;;;25.40;99.90;;;;;;5072796;28;20170;-34
2022/06/29 09:37:04;;;;;;;5.10;4.00;;;25.40;99.90;;;;;;5054067;28;20287;-33
2022/06/29 09:39:37;;;;;;;4.90;4.10;;;25.40;99.90;;;;;;5073075;28;20226;-33
2022/06/29 09:42:05;;;;;;;4.22;3.92;;;25.20;99.90;;;;;;5039290;28;20320;-33
2022/06/29 09:44:31;;;;;;;4.40;3.97;;;25.10;99.90;;;;;;5042242;28;20186;-33
2022/06/29 09:46:58;;;;;;;4.43;3.80;;;25.10;99.90;;;;;;5031399;28;20183;-33
2022/06/29 09:49:29;;;;;;;4.80;4.40;;;25.10;99.90;;;;;;5048054;28;20183;-33
2022/06/29 09:51:57;;;;;;;4.60;4.20;;;25.30;99.90;;;;;;5048503;28;20193;-33
2022/06/29 09:54:45;;;;;;;6.55;4.65;;;25.40;99.90;;;;;;5032659;28;20214;-33
2022/06/29 09:57:12;;;;;;;4.70;3.95;;;25.70;99.90;;;;;;5031305;28;20206;-33
2022/06/29 10:05:16;;;;;;;4.63;4.30;;;26.30;99.90;;;;;;5051175;28;20185;-33
2022/06/29 10:07:51;;;;;;;4.05;3.75;;;26.10;99.90;;;;;;5051882;28;20256;-33
2022/06/29 10:10:21;;;;;;;4.97;4.28;;;25.70;99.90;;;;;;5050174;28;20196;-32
2022/06/29 10:15:57;;;;;;;4.05;3.75;;;25.90;99.90;;;;;;5047561;28;20185;-33
2022/06/29 10:19:01;;;;;;;4.25;3.85;;;26.20;99.90;;;;;;5049980;28;20231;-33
2022/06/29 10:21:31;;;;;;;4.28;3.88;;;26.60;99.90;;;;;;5029516;28;20259;-33
2022/06/29 10:24:01;;;;;;;4.93;3.72;;;26.60;99.90;;;;;;5049385;28;20272;-33
2022/06/29 10:29:17;;;;;;;3.75;3.45;;;27.20;99.90;;;;;;5050100;28;20194;-33
2022/06/29 10:31:56;;;;;;;5.00;3.50;;;27.50;99.90;;;;;;5032271;28;20262;-33
2022/06/29 10:34:34;;;;;;;4.38;3.97;;;27.90;99.90;;;;;;5047628;28;20182;-33
2022/06/29 10:37:09;;;;;;;5.20;3.80;;;28.20;99.90;;;;;;5053520;28;20279;-33
2022/06/29 10:39:49;;;;;;;4.30;3.95;;;28.00;99.90;;;;;;5049241;28;20185;-35
2022/06/29 10:45:20;;;;;;;4.25;3.85;;;28.50;99.90;;;;;;5050265;28;20251;-33
2022/06/29 10:47:54;;;;;;;4.35;3.60;;;28.60;99.90;;;;;;5051567;28;20177;-33
2022/06/29 10:50:23;;;;;;;4.40;4.00;;;28.80;99.90;;;;;;5050426;28;20201;-34
2022/06/29 10:52:54;;;;;;;4.32;3.90;;;28.50;99.90;;;;;;5033004;28;20248;-34
2022/06/29 10:55:22;;;;;;;5.32;3.92;;;28.50;99.90;;;;;;5030094;28;20182;-33
2022/06/29 10:57:48;;;;;;;4.05;3.75;;;28.40;99.90;;;;;;5029973;28;20218;-33
2022/06/29 11:00:21;;;;;;;3.60;3.30;;;28.20;99.90;;;;;;5030234;28;20198;-35
2022/06/29 11:02:47;;;;;;;4.03;3.72;;;28.10;99.90;;;;;;5030252;28;20183;-34
2022/06/29 11:05:13;;;;;;;3.65;3.35;;;27.70;99.90;;;;;;5044147;28;20184;-34
2022/06/29 11:13:32;;;;;;;4.18;3.75;;;26.80;99.90;;;;;;5050575;28;20240;-34
2022/06/29 11:16:00;;;;;;;4.90;3.80;;;26.40;99.90;;;;;;5047479;28;20185;-34
2022/06/29 11:18:29;;;;;;;4.22;3.85;;;26.30;99.90;;;;;;5030978;28;20210;-33
2022/06/29 11:21:03;;;;;;;4.40;4.00;;;26.20;99.90;;;;;;5050708;28;20242;-33
2022/06/29 11:23:34;;;;;;;5.70;4.20;;;26.10;99.90;;;;;;5049437;28;20229;-33
2022/06/29 11:26:02;;;;;;;4.03;3.65;;;26.00;99.90;;;;;;5048098;28;20219;-35
2022/06/29 11:28:30;;;;;;;4.75;4.20;;;25.90;99.90;;;;;;5049316;28;20179;-33
2022/06/29 11:31:10;;;;;;;4.05;3.75;;;25.90;99.90;;;;;;5029385;28;20201;-33
2022/06/29 11:33:47;;;;;;;4.70;4.28;;;25.90;99.90;;;;;;5029299;28;20193;-33
2022/06/29 11:36:14;;;;;;;5.45;4.47;;;25.90;99.90;;;;;;5049088;28;20193;-33
2022/06/29 11:38:43;;;;;;;4.90;4.40;;;25.90;99.90;;;;;;5030309;28;20247;-35
2022/06/29 11:44:28;;;;;;;5.30;4.18;;;25.90;99.90;;;;;;5066470;28;20185;-33
2022/06/29 11:46:55;;;;;;;5.50;4.47;;;26.00;99.90;;;;;;5049821;28;20205;-33
2022/06/29 11:52:08;;;;;;;5.93;4.20;;;26.10;99.90;;;;;;5050321;28;20272;-33
2022/06/29 11:54:34;;;;;;;6.65;4.68;;;26.30;99.90;;;;;;5049525;28;20177;-34
2022/06/29 11:57:03;;;;;;;4.72;4.40;;;26.40;99.90;;;;;;5049533;28;20221;-33
2022/06/29 11:59:32;;;;;;;5.05;4.55;;;26.50;99.90;;;;;;5048330;28;20190;-33
2022/06/29 12:01:59;;;;;;;4.65;4.20;;;26.70;99.90;;;;;;5048872;28;20182;-33
2022/06/29 12:04:30;;;;;;;4.80;4.40;;;26.90;99.90;;;;;;5049015;28;20188;-33
2022/06/29 12:07:06;;;;;;;4.70;4.32;;;26.90;99.90;;;;;;5012920;28;20182;-33
2022/06/29 12:09:33;;;;;;;4.70;4.30;;;26.80;99.90;;;;;;5039666;28;20189;-33
2022/06/29 12:11:59;;;;;;;4.40;4.00;;;26.90;99.90;;;;;;5050160;28;20261;-34
2022/06/29 12:14:25;;;;;;;6.88;4.75;;;27.10;99.90;;;;;;5030165;28;20187;-33
2022/06/29 12:16:51;;;;;;;4.25;3.95;;;27.20;99.90;;;;;;5042661;28;20280;-33
2022/06/29 12:19:17;;;;;;;5.88;4.60;;;27.20;99.90;;;;;;5049440;28;20265;-33
2022/06/29 12:21:43;;;;;;;4.82;4.40;;;27.40;99.90;;;;;;5050668;28;20205;-33
2022/06/29 12:24:09;;;;;;;4.47;4.13;;;27.50;99.90;;;;;;5048314;28;20205;-33
2022/06/29 12:26:35;;;;;;;4.85;4.28;;;27.60;99.90;;;;;;5031380;28;20198;-33
2022/06/29 12:29:01;;;;;;;6.15;4.25;;;27.60;99.90;;;;;;5029565;28;20186;-33
2022/06/29 12:31:27;;;;;;;4.20;3.80;;;27.60;99.90;;;;;;5042746;28;20218;-33
2022/06/29 12:33:56;;;;;;;4.18;3.83;;;27.60;99.90;;;;;;5045188;28;20194;-32
2022/06/29 12:36:23;;;;;;;4.82;4.10;;;27.60;99.90;;;;;;5030976;28;20212;-33
2022/06/29 12:38:49;;;;;;;4.00;3.65;;;27.60;99.90;;;;;;5047636;28;20204;-33
2022/06/29 12:41:15;;;;;;;4.82;4.28;;;27.80;99.90;;;;;;5031981;28;20186;-33
2022/06/29 12:46:15;;;;;;;4.78;4.28;;;27.90;99.90;;;;;;5086418;28;20207;-40
2022/06/29 12:48:40;;;;;;;7.32;4.07;;;28.00;99.90;;;;;;5053266;28;20177;-37
2022/06/29 12:51:06;;;;;;;5.95;4.00;;;28.20;99.90;;;;;;5063428;28;20180;-35
2022/06/29 12:53:32;;;;;;;13.50;4.10;;;28.40;99.90;;;;;;5050820;28;20201;-36
2022/06/29 12:55:59;;;;;;;21.77;7.05;;;28.70;99.90;;;;;;5072454;28;20176;-36
2022/06/29 12:58:25;;;;;;;43.28;16.00;;;29.00;99.90;;;;;;5063860;28;20601;-35
2022/06/29 13:00:51;;;;;;;9.13;4.85;;;29.30;99.90;;;;;;5093173;28;20267;-36
2022/06/29 13:03:17;;;;;;;7.13;4.90;;;29.70;99.90;;;;;;5088121;28;20252;-38
2022/06/29 13:05:43;;;;;;;9.60;5.28;;;29.80;99.90;;;;;;5067055;28;20175;-35
2022/06/29 13:08:10;;;;;;;70.90;19.10;;;29.60;99.90;;;;;;5076546;28;20195;-36
2022/06/29 13:10:36;;;;;;;4.30;3.90;;;29.10;99.90;;;;;;5092003;28;20177;-35
2022/06/29 13:13:03;;;;;;;4.32;3.83;;;28.80;99.90;;;;;;5091513;28;20213;-36
2022/06/29 13:15:29;;;;;;;5.78;3.92;;;28.70;99.90;;;;;;5064111;28;20180;-36
2022/06/29 13:17:56;;;;;;;4.55;4.00;;;28.40;99.90;;;;;;5081306;28;20204;-35
2022/06/29 13:20:22;;;;;;;4.13;3.83;;;28.20;99.90;;;;;;5092023;28;20183;-35
2022/06/29 13:22:48;;;;;;;5.22;3.92;;;28.10;99.90;;;;;;5078302;28;20256;-36
2022/06/29 13:25:14;;;;;;;4.75;3.63;;;28.00;99.90;;;;;;5074772;28;20177;-35
2022/06/29 13:27:41;;;;;;;4.32;3.95;;;27.70;99.90;;;;;;5077831;28;20192;-36